sensor_id;sensor_type;location;lat;lon;timestamp;temperature;humidity
30865;DHT22;17574;49.418;11.038;2022-12-29T00:01:37;7.70;27.40
30865;DHT22;17574;49.418;11.038;2022-12-29T00:04:04;7.70;27.40
30865;DHT22;17574;49.418;11.038;2022-12-29T00:06:38;7.80;27.50
30865;DHT22;17574;49.418;11.038;2022-12-29T00:09:05;7.80;27.50
30865;DHT22;17574;49.418;11.038;2022-12-29T00:11:31;7.80;27.50
30865;DHT22;17574;49.418;11.038;2022-12-29T00:13:58;7.80;27.50
30865;DHT22;17574;49.418;11.038;2022-12-29T00:16:51;7.90;27.50
30865;DHT22;17574;49.418;11.038;2022-12-29T00:19:17;7.90;26.10
30865;DHT22;17574;49.418;11.038;2022-12-29T00:22:03;7.90;26.10
30865;DHT22;17574;49.418;11.038;2022-12-29T00:24:48;8.00;25.40
30865;DHT22;17574;49.418;11.038;2022-12-29T00:27:33;8.00;24.40
30865;DHT22;17574;49.418;11.038;2022-12-29T00:30:19;8.00;24.50
30865;DHT22;17574;49.418;11.038;2022-12-29T00:35:57;8.10;24.30
30865;DHT22;17574;49.418;11.038;2022-12-29T00:38:25;8.10;23.50
30865;DHT22;17574;49.418;11.038;2022-12-29T00:41:10;8.10;23.20
30865;DHT22;17574;49.418;11.038;2022-12-29T00:43:56;8.10;24.30
30865;DHT22;17574;49.418;11.038;2022-12-29T00:49:00;8.10;23.50
30865;DHT22;17574;49.418;11.038;2022-12-29T00:51:46;8.10;24.00
30865;DHT22;17574;49.418;11.038;2022-12-29T00:54:12;8.10;24.00
30865;DHT22;17574;49.418;11.038;2022-12-29T00:56:39;8.10;24.40
30865;DHT22;17574;49.418;11.038;2022-12-29T00:59:10;8.10;23.70
30865;DHT22;17574;49.418;11.038;2022-12-29T01:01:37;8.10;24.00
30865;DHT22;17574;49.418;11.038;2022-12-29T01:04:04;8.10;24.60
30865;DHT22;17574;49.418;11.038;2022-12-29T01:06:31;8.10;25.80
30865;DHT22;17574;49.418;11.038;2022-12-29T01:08:58;8.10;25.00
30865;DHT22;17574;49.418;11.038;2022-12-29T01:11:44;8.10;26.10
30865;DHT22;17574;49.418;11.038;2022-12-29T01:14:10;8.20;24.90
30865;DHT22;17574;49.418;11.038;2022-12-29T01:16:37;8.20;24.80
30865;DHT22;17574;49.418;11.038;2022-12-29T01:19:04;8.20;25.00
30865;DHT22;17574;49.418;11.038;2022-12-29T01:21:30;8.10;24.50
30865;DHT22;17574;49.418;11.038;2022-12-29T01:23:57;8.20;25.20
30865;DHT22;17574;49.418;11.038;2022-12-29T01:26:24;8.20;24.50
30865;DHT22;17574;49.418;11.038;2022-12-29T01:28:50;8.20;24.10
30865;DHT22;17574;49.418;11.038;2022-12-29T01:31:17;8.30;23.70
30865;DHT22;17574;49.418;11.038;2022-12-29T01:33:44;8.30;24.20
30865;DHT22;17574;49.418;11.038;2022-12-29T01:36:12;8.30;24.30
30865;DHT22;17574;49.418;11.038;2022-12-29T01:38:39;8.30;24.30
30865;DHT22;17574;49.418;11.038;2022-12-29T01:41:07;8.40;24.20
30865;DHT22;17574;49.418;11.038;2022-12-29T01:43:52;8.40;23.50
30865;DHT22;17574;49.418;11.038;2022-12-29T01:46:23;8.40;24.20
30865;DHT22;17574;49.418;11.038;2022-12-29T01:48:52;8.40;24.00
30865;DHT22;17574;49.418;11.038;2022-12-29T01:51:21;8.40;23.80
30865;DHT22;17574;49.418;11.038;2022-12-29T01:53:48;8.40;24.00
30865;DHT22;17574;49.418;11.038;2022-12-29T01:56:15;8.50;23.60
30865;DHT22;17574;49.418;11.038;2022-12-29T01:58:44;8.50;23.50
30865;DHT22;17574;49.418;11.038;2022-12-29T02:01:12;8.50;23.50
30865;DHT22;17574;49.418;11.038;2022-12-29T02:03:39;8.50;24.40
30865;DHT22;17574;49.418;11.038;2022-12-29T02:08:33;8.60;23.60
30865;DHT22;17574;49.418;11.038;2022-12-29T02:11:00;8.70;23.60
30865;DHT22;17574;49.418;11.038;2022-12-29T02:13:27;8.60;23.20
30865;DHT22;17574;49.418;11.038;2022-12-29T02:18:51;8.50;24.00
30865;DHT22;17574;49.418;11.038;2022-12-29T02:29:18;8.60;23.60
30865;DHT22;17574;49.418;11.038;2022-12-29T02:32:01;8.70;23.30
30865;DHT22;17574;49.418;11.038;2022-12-29T02:39:35;8.70;22.90
30865;DHT22;17574;49.418;11.038;2022-12-29T02:42:14;8.70;23.60
30865;DHT22;17574;49.418;11.038;2022-12-29T02:47:24;8.70;25.70
30865;DHT22;17574;49.418;11.038;2022-12-29T02:52:26;8.70;23.60
30865;DHT22;17574;49.418;11.038;2022-12-29T02:54:54;8.70;23.60
30865;DHT22;17574;49.418;11.038;2022-12-29T02:59:48;8.80;23.90
30865;DHT22;17574;49.418;11.038;2022-12-29T03:04:50;8.80;23.10
30865;DHT22;17574;49.418;11.038;2022-12-29T03:10:24;8.80;22.70
30865;DHT22;17574;49.418;11.038;2022-12-29T03:12:56;8.80;21.70
30865;DHT22;17574;49.418;11.038;2022-12-29T03:15:48;8.90;21.50
30865;DHT22;17574;49.418;11.038;2022-12-29T03:21:03;8.90;20.60
30865;DHT22;17574;49.418;11.038;2022-12-29T03:23:31;8.90;21.70
30865;DHT22;17574;49.418;11.038;2022-12-29T03:26:01;8.80;22.10
30865;DHT22;17574;49.418;11.038;2022-12-29T03:28:33;8.80;22.40
30865;DHT22;17574;49.418;11.038;2022-12-29T03:31:02;8.80;21.60
30865;DHT22;17574;49.418;11.038;2022-12-29T03:33:29;8.90;21.00
30865;DHT22;17574;49.418;11.038;2022-12-29T03:36:00;9.00;20.50
30865;DHT22;17574;49.418;11.038;2022-12-29T03:38:33;8.90;21.00
30865;DHT22;17574;49.418;11.038;2022-12-29T03:41:00;8.90;20.80
30865;DHT22;17574;49.418;11.038;2022-12-29T03:43:28;8.90;21.00
30865;DHT22;17574;49.418;11.038;2022-12-29T03:45:55;8.90;21.00
30865;DHT22;17574;49.418;11.038;2022-12-29T03:48:22;8.90;20.90
30865;DHT22;17574;49.418;11.038;2022-12-29T03:50:48;8.90;20.20
30865;DHT22;17574;49.418;11.038;2022-12-29T03:53:15;9.00;19.30
30865;DHT22;17574;49.418;11.038;2022-12-29T03:55:41;8.90;20.60
30865;DHT22;17574;49.418;11.038;2022-12-29T03:58:08;8.90;21.30
30865;DHT22;17574;49.418;11.038;2022-12-29T04:00:35;8.90;21.00
30865;DHT22;17574;49.418;11.038;2022-12-29T04:03:01;8.80;21.20
30865;DHT22;17574;49.418;11.038;2022-12-29T04:05:28;8.80;20.10
30865;DHT22;17574;49.418;11.038;2022-12-29T04:07:54;8.80;20.50
30865;DHT22;17574;49.418;11.038;2022-12-29T04:10:21;8.80;20.70
30865;DHT22;17574;49.418;11.038;2022-12-29T04:12:48;8.80;20.20
30865;DHT22;17574;49.418;11.038;2022-12-29T04:15:15;8.80;21.10
30865;DHT22;17574;49.418;11.038;2022-12-29T04:17:43;8.80;20.40
30865;DHT22;17574;49.418;11.038;2022-12-29T04:20:10;8.80;20.20
30865;DHT22;17574;49.418;11.038;2022-12-29T04:22:59;8.80;20.30
30865;DHT22;17574;49.418;11.038;2022-12-29T04:25:26;8.70;21.10
30865;DHT22;17574;49.418;11.038;2022-12-29T04:27:52;8.70;20.00
30865;DHT22;17574;49.418;11.038;2022-12-29T04:30:19;8.70;19.80
30865;DHT22;17574;49.418;11.038;2022-12-29T04:32:46;8.70;20.70
30865;DHT22;17574;49.418;11.038;2022-12-29T04:35:12;8.60;21.00
30865;DHT22;17574;49.418;11.038;2022-12-29T04:37:39;8.60;20.40
30865;DHT22;17574;49.418;11.038;2022-12-29T04:40:06;8.60;20.80
30865;DHT22;17574;49.418;11.038;2022-12-29T04:42:32;8.50;21.20
30865;DHT22;17574;49.418;11.038;2022-12-29T04:44:59;8.50;21.90
30865;DHT22;17574;49.418;11.038;2022-12-29T04:47:26;8.50;21.10
30865;DHT22;17574;49.418;11.038;2022-12-29T04:49:52;8.50;22.30
30865;DHT22;17574;49.418;11.038;2022-12-29T04:52:19;8.50;23.00
30865;DHT22;17574;49.418;11.038;2022-12-29T04:54:45;8.40;22.90
30865;DHT22;17574;49.418;11.038;2022-12-29T04:57:12;8.40;21.70
30865;DHT22;17574;49.418;11.038;2022-12-29T04:59:39;8.40;21.60
30865;DHT22;17574;49.418;11.038;2022-12-29T05:02:06;8.40;21.50
30865;DHT22;17574;49.418;11.038;2022-12-29T05:04:33;8.40;20.90
30865;DHT22;17574;49.418;11.038;2022-12-29T05:06:59;8.40;21.90
30865;DHT22;17574;49.418;11.038;2022-12-29T05:09:26;8.30;22.70
30865;DHT22;17574;49.418;11.038;2022-12-29T05:11:53;8.30;22.50
30865;DHT22;17574;49.418;11.038;2022-12-29T05:14:19;8.20;23.00
30865;DHT22;17574;49.418;11.038;2022-12-29T05:16:46;8.20;23.30
30865;DHT22;17574;49.418;11.038;2022-12-29T05:19:12;8.10;23.80
30865;DHT22;17574;49.418;11.038;2022-12-29T05:21:39;8.10;24.50
30865;DHT22;17574;49.418;11.038;2022-12-29T05:24:06;8.10;23.90
30865;DHT22;17574;49.418;11.038;2022-12-29T05:26:33;8.10;24.80
30865;DHT22;17574;49.418;11.038;2022-12-29T05:28:59;8.10;25.20
30865;DHT22;17574;49.418;11.038;2022-12-29T05:31:26;8.10;25.70
30865;DHT22;17574;49.418;11.038;2022-12-29T05:33:53;8.10;27.70
30865;DHT22;17574;49.418;11.038;2022-12-29T05:36:19;8.00;27.60
30865;DHT22;17574;49.418;11.038;2022-12-29T05:38:46;8.00;27.60
30865;DHT22;17574;49.418;11.038;2022-12-29T05:41:13;8.00;27.60
30865;DHT22;17574;49.418;11.038;2022-12-29T05:43:39;7.90;27.50
30865;DHT22;17574;49.418;11.038;2022-12-29T05:46:06;7.90;27.60
30865;DHT22;17574;49.418;11.038;2022-12-29T05:48:33;7.90;27.50
30865;DHT22;17574;49.418;11.038;2022-12-29T05:51:03;7.90;27.50
30865;DHT22;17574;49.418;11.038;2022-12-29T05:53:30;7.90;27.50
30865;DHT22;17574;49.418;11.038;2022-12-29T05:55:57;7.80;27.50
30865;DHT22;17574;49.418;11.038;2022-12-29T05:58:23;7.80;27.80
30865;DHT22;17574;49.418;11.038;2022-12-29T06:00:50;7.70;27.40
30865;DHT22;17574;49.418;11.038;2022-12-29T06:03:17;7.70;27.40
30865;DHT22;17574;49.418;11.038;2022-12-29T06:05:44;7.70;27.40
30865;DHT22;17574;49.418;11.038;2022-12-29T06:08:11;7.70;28.30
30865;DHT22;17574;49.418;11.038;2022-12-29T06:10:38;7.70;28.20
30865;DHT22;17574;49.418;11.038;2022-12-29T06:13:05;7.60;28.40
30865;DHT22;17574;49.418;11.038;2022-12-29T06:15:34;7.60;28.50
30865;DHT22;17574;49.418;11.038;2022-12-29T06:18:01;7.60;29.10
30865;DHT22;17574;49.418;11.038;2022-12-29T06:20:28;7.60;29.50
30865;DHT22;17574;49.418;11.038;2022-12-29T06:22:55;7.60;28.10
30865;DHT22;17574;49.418;11.038;2022-12-29T06:25:21;7.60;27.50
30865;DHT22;17574;49.418;11.038;2022-12-29T06:27:48;7.70;27.40
30865;DHT22;17574;49.418;11.038;2022-12-29T06:30:15;7.70;27.40
30865;DHT22;17574;49.418;11.038;2022-12-29T06:32:43;7.70;26.20
30865;DHT22;17574;49.418;11.038;2022-12-29T06:35:10;7.80;25.90
30865;DHT22;17574;49.418;11.038;2022-12-29T06:37:37;7.80;26.30
30865;DHT22;17574;49.418;11.038;2022-12-29T06:40:04;7.80;26.00
30865;DHT22;17574;49.418;11.038;2022-12-29T06:42:30;7.80;25.70
30865;DHT22;17574;49.418;11.038;2022-12-29T06:44:57;7.80;26.10
30865;DHT22;17574;49.418;11.038;2022-12-29T06:47:25;7.80;24.50
30865;DHT22;17574;49.418;11.038;2022-12-29T06:49:52;7.80;24.40
30865;DHT22;17574;49.418;11.038;2022-12-29T06:52:18;7.80;23.70
30865;DHT22;17574;49.418;11.038;2022-12-29T06:54:45;7.80;24.90
30865;DHT22;17574;49.418;11.038;2022-12-29T06:57:11;7.80;24.40
30865;DHT22;17574;49.418;11.038;2022-12-29T06:59:38;7.90;23.70
30865;DHT22;17574;49.418;11.038;2022-12-29T07:02:05;7.80;24.70
30865;DHT22;17574;49.418;11.038;2022-12-29T07:04:32;7.80;25.10
30865;DHT22;17574;49.418;11.038;2022-12-29T07:06:58;7.80;24.90
30865;DHT22;17574;49.418;11.038;2022-12-29T07:09:25;7.70;25.00
30865;DHT22;17574;49.418;11.038;2022-12-29T07:11:52;7.80;23.20
30865;DHT22;17574;49.418;11.038;2022-12-29T07:14:18;7.80;24.00
30865;DHT22;17574;49.418;11.038;2022-12-29T07:16:45;7.80;24.50
30865;DHT22;17574;49.418;11.038;2022-12-29T07:19:12;7.70;23.80
30865;DHT22;17574;49.418;11.038;2022-12-29T07:21:39;7.70;24.40
30865;DHT22;17574;49.418;11.038;2022-12-29T07:24:11;7.90;24.80
30865;DHT22;17574;49.418;11.038;2022-12-29T07:26:38;7.80;23.00
30865;DHT22;17574;49.418;11.038;2022-12-29T07:29:05;7.90;22.30
30865;DHT22;17574;49.418;11.038;2022-12-29T07:31:31;7.90;22.80
30865;DHT22;17574;49.418;11.038;2022-12-29T07:33:58;7.90;23.10
30865;DHT22;17574;49.418;11.038;2022-12-29T07:36:25;7.90;23.10
30865;DHT22;17574;49.418;11.038;2022-12-29T07:38:59;8.00;23.70
30865;DHT22;17574;49.418;11.038;2022-12-29T07:41:26;8.00;23.10
30865;DHT22;17574;49.418;11.038;2022-12-29T07:43:52;8.00;22.20
30865;DHT22;17574;49.418;11.038;2022-12-29T07:46:19;8.10;22.40
30865;DHT22;17574;49.418;11.038;2022-12-29T07:49:06;8.10;22.80
30865;DHT22;17574;49.418;11.038;2022-12-29T07:51:33;8.30;22.30
30865;DHT22;17574;49.418;11.038;2022-12-29T07:54:00;8.30;20.80
30865;DHT22;17574;49.418;11.038;2022-12-29T07:56:27;8.40;18.90
30865;DHT22;17574;49.418;11.038;2022-12-29T07:58:54;8.50;19.00
30865;DHT22;17574;49.418;11.038;2022-12-29T08:01:20;8.60;19.00
30865;DHT22;17574;49.418;11.038;2022-12-29T08:03:49;8.70;19.10
30865;DHT22;17574;49.418;11.038;2022-12-29T08:06:22;8.50;18.30
30865;DHT22;17574;49.418;11.038;2022-12-29T08:08:49;8.80;18.40
30865;DHT22;17574;49.418;11.038;2022-12-29T08:11:16;8.80;16.60
30865;DHT22;17574;49.418;11.038;2022-12-29T08:13:42;8.90;16.30
30865;DHT22;17574;49.418;11.038;2022-12-29T08:16:09;9.00;16.30
30865;DHT22;17574;49.418;11.038;2022-12-29T08:18:35;9.10;16.00
30865;DHT22;17574;49.418;11.038;2022-12-29T08:21:03;9.10;14.80
30865;DHT22;17574;49.418;11.038;2022-12-29T08:23:30;9.10;15.50
30865;DHT22;17574;49.418;11.038;2022-12-29T08:25:58;9.20;14.60
30865;DHT22;17574;49.418;11.038;2022-12-29T08:28:24;9.30;14.80
30865;DHT22;17574;49.418;11.038;2022-12-29T08:30:51;9.40;14.50
30865;DHT22;17574;49.418;11.038;2022-12-29T08:33:18;9.40;14.00
30865;DHT22;17574;49.418;11.038;2022-12-29T08:35:44;9.50;13.40
30865;DHT22;17574;49.418;11.038;2022-12-29T08:38:11;9.70;12.10
30865;DHT22;17574;49.418;11.038;2022-12-29T08:40:38;9.90;12.40
30865;DHT22;17574;49.418;11.038;2022-12-29T08:43:04;10.00;9.80
30865;DHT22;17574;49.418;11.038;2022-12-29T08:45:31;10.30;8.40
30865;DHT22;17574;49.418;11.038;2022-12-29T08:47:58;10.40;6.90
30865;DHT22;17574;49.418;11.038;2022-12-29T08:50:24;10.60;7.50
30865;DHT22;17574;49.418;11.038;2022-12-29T08:52:51;10.80;6.60
30865;DHT22;17574;49.418;11.038;2022-12-29T08:55:17;10.90;4.50
30865;DHT22;17574;49.418;11.038;2022-12-29T08:57:44;10.90;5.70
30865;DHT22;17574;49.418;11.038;2022-12-29T09:00:11;10.90;5.70
30865;DHT22;17574;49.418;11.038;2022-12-29T09:02:37;11.00;5.50
30865;DHT22;17574;49.418;11.038;2022-12-29T09:05:04;11.00;5.80
30865;DHT22;17574;49.418;11.038;2022-12-29T09:07:31;11.10;5.80
30865;DHT22;17574;49.418;11.038;2022-12-29T09:09:58;11.10;5.80
30865;DHT22;17574;49.418;11.038;2022-12-29T09:12:24;11.20;4.60
30865;DHT22;17574;49.418;11.038;2022-12-29T09:14:57;11.30;5.50
30865;DHT22;17574;49.418;11.038;2022-12-29T09:17:23;11.30;5.10
30865;DHT22;17574;49.418;11.038;2022-12-29T09:20:09;11.50;6.20
30865;DHT22;17574;49.418;11.038;2022-12-29T09:22:36;11.80;3.90
30865;DHT22;17574;49.418;11.038;2022-12-29T09:25:03;12.00;1.60
30865;DHT22;17574;49.418;11.038;2022-12-29T09:27:29;12.20;1.70
30865;DHT22;17574;49.418;11.038;2022-12-29T09:29:56;12.40;1.00
30865;DHT22;17574;49.418;11.038;2022-12-29T09:32:23;12.60;1.00
30865;DHT22;17574;49.418;11.038;2022-12-29T09:34:55;12.60;1.00
30865;DHT22;17574;49.418;11.038;2022-12-29T09:37:21;12.80;1.00
30865;DHT22;17574;49.418;11.038;2022-12-29T09:39:49;13.00;1.00
30865;DHT22;17574;49.418;11.038;2022-12-29T09:45:15;13.10;1.00
30865;DHT22;17574;49.418;11.038;2022-12-29T09:47:43;13.10;1.00
30865;DHT22;17574;49.418;11.038;2022-12-29T09:53:27;13.00;1.00
30865;DHT22;17574;49.418;11.038;2022-12-29T09:55:37;13.00;1.00
30865;DHT22;17574;49.418;11.038;2022-12-29T10:00:41;12.70;1.00
30865;DHT22;17574;49.418;11.038;2022-12-29T10:03:19;12.80;1.00
30865;DHT22;17574;49.418;11.038;2022-12-29T10:05:50;12.90;1.00
30865;DHT22;17574;49.418;11.038;2022-12-29T10:10:59;13.00;1.00
30865;DHT22;17574;49.418;11.038;2022-12-29T10:13:33;12.90;1.00
30865;DHT22;17574;49.418;11.038;2022-12-29T10:16:20;12.80;1.00
30865;DHT22;17574;49.418;11.038;2022-12-29T10:24:11;12.60;2.10
30865;DHT22;17574;49.418;11.038;2022-12-29T10:26:41;12.50;2.00
30865;DHT22;17574;49.418;11.038;2022-12-29T10:29:13;12.50;2.00
30865;DHT22;17574;49.418;11.038;2022-12-29T10:37:00;12.40;4.50
30865;DHT22;17574;49.418;11.038;2022-12-29T10:39:33;12.40;4.70
30865;DHT22;17574;49.418;11.038;2022-12-29T10:42:04;12.40;4.70
30865;DHT22;17574;49.418;11.038;2022-12-29T10:44:35;12.40;5.30
30865;DHT22;17574;49.418;11.038;2022-12-29T10:47:02;12.50;4.20
30865;DHT22;17574;49.418;11.038;2022-12-29T10:49:31;12.40;4.40
30865;DHT22;17574;49.418;11.038;2022-12-29T10:51:58;12.40;5.80
30865;DHT22;17574;49.418;11.038;2022-12-29T10:56:54;12.50;5.00
30865;DHT22;17574;49.418;11.038;2022-12-29T10:59:30;12.40;4.90
30865;DHT22;17574;49.418;11.038;2022-12-29T11:02:04;12.50;5.40
30865;DHT22;17574;49.418;11.038;2022-12-29T11:07:13;12.60;5.70
30865;DHT22;17574;49.418;11.038;2022-12-29T11:09:44;12.60;4.50
30865;DHT22;17574;49.418;11.038;2022-12-29T11:12:25;12.70;5.50
30865;DHT22;17574;49.418;11.038;2022-12-29T11:17:50;12.80;3.80
30865;DHT22;17574;49.418;11.038;2022-12-29T11:22:50;13.00;3.00
30865;DHT22;17574;49.418;11.038;2022-12-29T11:25:16;13.10;2.40
30865;DHT22;17574;49.418;11.038;2022-12-29T11:27:54;13.30;2.40
30865;DHT22;17574;49.418;11.038;2022-12-29T11:30:25;13.50;1.10
30865;DHT22;17574;49.418;11.038;2022-12-29T11:32:52;13.70;1.00
30865;DHT22;17574;49.418;11.038;2022-12-29T11:35:29;13.80;1.00
30865;DHT22;17574;49.418;11.038;2022-12-29T11:37:57;13.90;1.00
30865;DHT22;17574;49.418;11.038;2022-12-29T11:40:24;14.00;1.00
30865;DHT22;17574;49.418;11.038;2022-12-29T11:42:52;14.10;1.00
30865;DHT22;17574;49.418;11.038;2022-12-29T11:45:24;14.20;1.00
30865;DHT22;17574;49.418;11.038;2022-12-29T11:47:52;14.30;1.00
30865;DHT22;17574;49.418;11.038;2022-12-29T11:50:21;14.40;1.00
30865;DHT22;17574;49.418;11.038;2022-12-29T11:52:48;14.80;1.00
30865;DHT22;17574;49.418;11.038;2022-12-29T11:55:20;15.50;1.00
30865;DHT22;17574;49.418;11.038;2022-12-29T11:57:48;16.00;1.00
30865;DHT22;17574;49.418;11.038;2022-12-29T12:00:17;16.40;1.00
30865;DHT22;17574;49.418;11.038;2022-12-29T12:02:47;16.50;1.00
30865;DHT22;17574;49.418;11.038;2022-12-29T12:07:45;16.20;1.00
30865;DHT22;17574;49.418;11.038;2022-12-29T12:10:23;16.10;1.00
30865;DHT22;17574;49.418;11.038;2022-12-29T12:12:56;16.30;1.00
30865;DHT22;17574;49.418;11.038;2022-12-29T12:15:27;16.40;1.00
30865;DHT22;17574;49.418;11.038;2022-12-29T12:23:12;16.30;1.00
30865;DHT22;17574;49.418;11.038;2022-12-29T12:25:43;16.50;1.00
30865;DHT22;17574;49.418;11.038;2022-12-29T12:28:21;17.00;5.40
30865;DHT22;17574;49.418;11.038;2022-12-29T12:30:52;17.30;1.00
30865;DHT22;17574;49.418;11.038;2022-12-29T12:35:53;17.50;1.00
30865;DHT22;17574;49.418;11.038;2022-12-29T12:46:09;18.00;1.00
30865;DHT22;17574;49.418;11.038;2022-12-29T13:04:27;16.40;1.00
30865;DHT22;17574;49.418;11.038;2022-12-29T13:15:03;14.80;1.00
30865;DHT22;17574;49.418;11.038;2022-12-29T13:17:13;14.60;1.00
30865;DHT22;17574;49.418;11.038;2022-12-29T13:22:43;14.10;3.20
30865;DHT22;17574;49.418;11.038;2022-12-29T13:25:28;14.00;4.70
30865;DHT22;17574;49.418;11.038;2022-12-29T13:28:00;13.90;5.70
30865;DHT22;17574;49.418;11.038;2022-12-29T13:31:04;13.80;5.30
30865;DHT22;17574;49.418;11.038;2022-12-29T13:34:04;13.70;5.90
30865;DHT22;17574;49.418;11.038;2022-12-29T13:37:00;13.60;7.10
30865;DHT22;17574;49.418;11.038;2022-12-29T13:39:59;13.50;9.60
30865;DHT22;17574;49.418;11.038;2022-12-29T13:42:52;13.40;10.10
30865;DHT22;17574;49.418;11.038;2022-12-29T13:45:42;13.40;10.30
30865;DHT22;17574;49.418;11.038;2022-12-29T13:48:38;14.30;36.40
30865;DHT22;17574;49.418;11.038;2022-12-29T13:51:29;15.40;16.90
30865;DHT22;17574;49.418;11.038;2022-12-29T13:56:39;16.20;2.30
30865;DHT22;17574;49.418;11.038;2022-12-29T14:04:34;16.60;1.00
30865;DHT22;17574;49.418;11.038;2022-12-29T14:07:06;16.30;1.00
30865;DHT22;17574;49.418;11.038;2022-12-29T14:12:19;15.90;1.00
30865;DHT22;17574;49.418;11.038;2022-12-29T14:14:46;15.80;1.00
30865;DHT22;17574;49.418;11.038;2022-12-29T14:17:17;15.60;1.00
30865;DHT22;17574;49.418;11.038;2022-12-29T14:19:45;15.50;1.00
30865;DHT22;17574;49.418;11.038;2022-12-29T14:22:13;15.60;1.00
30865;DHT22;17574;49.418;11.038;2022-12-29T14:24:45;15.50;1.00
30865;DHT22;17574;49.418;11.038;2022-12-29T14:27:43;15.40;1.00
30865;DHT22;17574;49.418;11.038;2022-12-29T14:30:55;15.40;1.00
30865;DHT22;17574;49.418;11.038;2022-12-29T14:33:23;15.50;1.00
30865;DHT22;17574;49.418;11.038;2022-12-29T14:35:52;15.40;1.00
30865;DHT22;17574;49.418;11.038;2022-12-29T14:38:23;15.40;1.20
30865;DHT22;17574;49.418;11.038;2022-12-29T14:40:50;15.40;1.00
30865;DHT22;17574;49.418;11.038;2022-12-29T14:43:21;15.40;1.00
30865;DHT22;17574;49.418;11.038;2022-12-29T14:45:54;15.30;1.10
30865;DHT22;17574;49.418;11.038;2022-12-29T14:51:18;15.30;2.50
30865;DHT22;17574;49.418;11.038;2022-12-29T14:53:48;15.10;2.60
30865;DHT22;17574;49.418;11.038;2022-12-29T14:56:16;15.30;1.10
30865;DHT22;17574;49.418;11.038;2022-12-29T14:58:50;15.30;2.40
30865;DHT22;17574;49.418;11.038;2022-12-29T15:01:42;15.50;2.30
30865;DHT22;17574;49.418;11.038;2022-12-29T15:04:30;15.60;1.00
30865;DHT22;17574;49.418;11.038;2022-12-29T15:06:52;15.60;1.00
30865;DHT22;17574;49.418;11.038;2022-12-29T15:11:51;14.20;4.70
30865;DHT22;17574;49.418;11.038;2022-12-29T15:14:26;13.70;7.80
30865;DHT22;17574;49.418;11.038;2022-12-29T15:16:54;13.40;11.20
30865;DHT22;17574;49.418;11.038;2022-12-29T15:19:23;13.10;13.00
30865;DHT22;17574;49.418;11.038;2022-12-29T15:21:50;13.00;15.40
30865;DHT22;17574;49.418;11.038;2022-12-29T15:24:18;12.80;16.70
30865;DHT22;17574;49.418;11.038;2022-12-29T15:26:45;12.60;18.40
30865;DHT22;17574;49.418;11.038;2022-12-29T15:29:29;12.50;20.10
30865;DHT22;17574;49.418;11.038;2022-12-29T15:31:57;12.40;21.00
30865;DHT22;17574;49.418;11.038;2022-12-29T15:34:25;12.30;21.00
30865;DHT22;17574;49.418;11.038;2022-12-29T15:36:55;12.20;22.50
30865;DHT22;17574;49.418;11.038;2022-12-29T15:39:29;12.20;22.90
30865;DHT22;17574;49.418;11.038;2022-12-29T15:41:56;12.20;23.20
30865;DHT22;17574;49.418;11.038;2022-12-29T15:47:03;12.00;25.00
30865;DHT22;17574;49.418;11.038;2022-12-29T15:49:30;12.00;25.30
30865;DHT22;17574;49.418;11.038;2022-12-29T15:51:58;12.00;25.60
30865;DHT22;17574;49.418;11.038;2022-12-29T15:54:25;11.90;26.40
30865;DHT22;17574;49.418;11.038;2022-12-29T15:56:52;11.80;28.10
30865;DHT22;17574;49.418;11.038;2022-12-29T15:59:26;11.70;29.50
30865;DHT22;17574;49.418;11.038;2022-12-29T16:01:56;11.60;29.40
30865;DHT22;17574;49.418;11.038;2022-12-29T16:04:23;11.50;30.80
30865;DHT22;17574;49.418;11.038;2022-12-29T16:06:55;11.50;31.70
30865;DHT22;17574;49.418;11.038;2022-12-29T16:09:30;11.40;33.30
30865;DHT22;17574;49.418;11.038;2022-12-29T16:11:58;11.40;34.10
30865;DHT22;17574;49.418;11.038;2022-12-29T16:14:33;11.40;34.50
30865;DHT22;17574;49.418;11.038;2022-12-29T16:17:01;11.40;34.70
30865;DHT22;17574;49.418;11.038;2022-12-29T16:19:37;11.30;34.80
30865;DHT22;17574;49.418;11.038;2022-12-29T16:22:27;11.30;35.70
30865;DHT22;17574;49.418;11.038;2022-12-29T16:24:53;11.20;36.30
30865;DHT22;17574;49.418;11.038;2022-12-29T16:27:36;11.30;36.60
30865;DHT22;17574;49.418;11.038;2022-12-29T16:30:12;11.30;35.80
30865;DHT22;17574;49.418;11.038;2022-12-29T16:32:46;11.30;35.70
30865;DHT22;17574;49.418;11.038;2022-12-29T16:35:29;10.90;35.70
30865;DHT22;17574;49.418;11.038;2022-12-29T16:40:49;11.30;38.00
30865;DHT22;17574;49.418;11.038;2022-12-29T16:43:26;11.30;38.50
30865;DHT22;17574;49.418;11.038;2022-12-29T16:48:20;11.30;39.90
30865;DHT22;17574;49.418;11.038;2022-12-29T16:50:48;11.20;40.00
30865;DHT22;17574;49.418;11.038;2022-12-29T16:55:47;11.20;40.00
30865;DHT22;17574;49.418;11.038;2022-12-29T16:58:21;11.10;39.90
30865;DHT22;17574;49.418;11.038;2022-12-29T17:00:49;11.10;39.90
30865;DHT22;17574;49.418;11.038;2022-12-29T17:03:15;11.10;39.90
30865;DHT22;17574;49.418;11.038;2022-12-29T17:05:42;11.10;39.90
30865;DHT22;17574;49.418;11.038;2022-12-29T17:08:19;11.10;39.90
30865;DHT22;17574;49.418;11.038;2022-12-29T17:10:50;11.10;39.90
30865;DHT22;17574;49.418;11.038;2022-12-29T17:13:36;11.10;40.50
30865;DHT22;17574;49.418;11.038;2022-12-29T17:16:03;11.10;39.90
30865;DHT22;17574;49.418;11.038;2022-12-29T17:18:30;11.10;40.00
30865;DHT22;17574;49.418;11.038;2022-12-29T17:20:57;11.10;41.00
30865;DHT22;17574;49.418;11.038;2022-12-29T17:23:23;11.10;41.30
30865;DHT22;17574;49.418;11.038;2022-12-29T17:25:52;11.10;41.80
30865;DHT22;17574;49.418;11.038;2022-12-29T17:28:21;11.00;42.60
30865;DHT22;17574;49.418;11.038;2022-12-29T17:30:48;11.00;45.30
30865;DHT22;17574;49.418;11.038;2022-12-29T17:33:16;11.00;50.70
30865;DHT22;17574;49.418;11.038;2022-12-29T17:35:43;11.00;58.70
30865;DHT22;17574;49.418;11.038;2022-12-29T17:38:16;11.00;66.60
30865;DHT22;17574;49.418;11.038;2022-12-29T17:40:43;10.90;69.70
30865;DHT22;17574;49.418;11.038;2022-12-29T17:43:14;10.80;77.10
30865;DHT22;17574;49.418;11.038;2022-12-29T17:45:41;10.80;78.00
30865;DHT22;17574;49.418;11.038;2022-12-29T17:48:12;10.70;79.40
30865;DHT22;17574;49.418;11.038;2022-12-29T17:50:39;10.60;82.00
30865;DHT22;17574;49.418;11.038;2022-12-29T17:53:06;10.50;84.50
30865;DHT22;17574;49.418;11.038;2022-12-29T17:55:37;10.50;86.00
30865;DHT22;17574;49.418;11.038;2022-12-29T17:58:20;10.50;87.80
30865;DHT22;17574;49.418;11.038;2022-12-29T18:00:47;10.40;89.80
30865;DHT22;17574;49.418;11.038;2022-12-29T18:03:15;10.40;90.50
30865;DHT22;17574;49.418;11.038;2022-12-29T18:05:42;10.40;90.80
30865;DHT22;17574;49.418;11.038;2022-12-29T18:08:10;10.40;91.70
30865;DHT22;17574;49.418;11.038;2022-12-29T18:10:37;10.30;91.60